createdAt,value
2019-05-17T00:00:08.800Z,96.94
2019-05-17T00:02:37.686Z,96.97
2019-05-17T00:05:07.666Z,96.84
2019-05-17T00:07:36.925Z,96.79
2019-05-17T00:10:06.907Z,96.96
2019-05-17T00:12:36.879Z,97.04
2019-05-17T00:15:07.366Z,96.75
2019-05-17T00:17:37.663Z,96.75
2019-05-17T00:20:07.912Z,96.76
2019-05-17T00:22:36.711Z,96.85
2019-05-17T00:25:08.730Z,97.22
2019-05-17T00:27:37.905Z,97.62
2019-05-17T00:30:08.348Z,97.69
2019-05-17T00:32:37.065Z,97.94
2019-05-17T00:35:07.648Z,98.19
2019-05-17T00:37:37.224Z,98.43
2019-05-17T00:40:07.866Z,98.74
2019-05-17T00:42:37.162Z,98.48
2019-05-17T00:45:09.336Z,98.21
2019-05-17T00:47:37.749Z,98.20
2019-05-17T00:50:07.889Z,97.99
2019-05-17T00:52:36.960Z,97.89
2019-05-17T00:55:09.168Z,97.63
2019-05-17T00:57:37.585Z,97.52
2019-05-17T01:00:11.637Z,97.94
2019-05-17T01:02:40.058Z,98.33
2019-05-17T01:05:08.832Z,98.29
2019-05-17T01:07:37.846Z,98.08
2019-05-17T01:10:08.089Z,97.84
2019-05-17T01:12:36.763Z,97.69
2019-05-17T01:15:10.720Z,97.63
2019-05-17T01:17:39.135Z,97.84
2019-05-17T01:20:09.298Z,97.98
2019-05-17T01:22:37.713Z,98.24
2019-05-17T01:25:09.609Z,98.16
2019-05-17T01:27:38.341Z,98.51
2019-05-17T01:30:10.205Z,97.73
2019-05-17T01:32:38.633Z,97.43
2019-05-17T01:35:07.623Z,97.24
2019-05-17T01:37:36.942Z,97.49
2019-05-17T01:40:06.938Z,97.85
2019-05-17T01:42:37.375Z,98.28
2019-05-17T01:45:09.395Z,98.30
2019-05-17T01:47:37.826Z,98.62
2019-05-17T01:50:08.392Z,98.75
2019-05-17T01:52:37.158Z,98.04
2019-05-17T01:55:07.354Z,97.89
2019-05-17T01:57:37.100Z,97.62
2019-05-17T02:00:10.052Z,97.30
2019-05-17T02:02:40.201Z,96.81
2019-05-17T02:05:08.745Z,96.91
2019-05-17T02:07:37.384Z,97.21
2019-05-17T02:10:07.573Z,97.15
2019-05-17T02:12:37.174Z,97.85
2019-05-17T02:15:08.868Z,97.66
2019-05-17T02:17:37.576Z,97.66
2019-05-17T02:20:08.639Z,97.39
2019-05-17T02:22:37.058Z,97.21
2019-05-17T02:25:13.422Z,97.31
2019-05-17T02:27:44.668Z,97.86
2019-05-17T02:30:14.592Z,98.02
2019-05-17T02:32:44.228Z,97.97
2019-05-17T02:35:14.576Z,97.84
2019-05-17T02:37:43.705Z,98.07
2019-05-17T02:40:14.815Z,98.24
2019-05-17T02:42:44.182Z,98.15
2019-05-17T02:45:13.509Z,97.68
2019-05-17T02:47:43.689Z,97.64
2019-05-17T02:50:13.390Z,97.75
2019-05-17T02:52:43.707Z,97.71
2019-05-17T02:55:13.624Z,97.86
2019-05-17T02:57:43.266Z,98.01
2019-05-17T03:00:13.631Z,97.59
2019-05-17T03:02:43.465Z,97.52
2019-05-17T03:05:13.477Z,97.86
2019-05-17T03:07:43.794Z,98.16
2019-05-17T03:10:23.071Z,98.29
2019-05-17T03:12:44.731Z,98.50
2019-05-17T03:15:13.683Z,98.63
2019-05-17T03:17:43.379Z,98.23
2019-05-17T03:20:13.207Z,98.48
2019-05-17T03:22:44.193Z,98.47
2019-05-17T03:25:13.940Z,98.29
2019-05-17T03:27:43.211Z,98.80
2019-05-17T03:30:17.239Z,98.89
2019-05-17T03:32:47.502Z,98.70
2019-05-17T03:35:16.538Z,98.38
2019-05-17T03:37:44.093Z,98.17
2019-05-17T03:40:24.823Z,98.48
2019-05-17T03:42:43.196Z,98.97
2019-05-17T03:45:13.763Z,98.97
2019-05-17T03:47:44.344Z,98.76
2019-05-17T03:50:13.634Z,98.39
2019-05-17T03:52:44.343Z,98.28
2019-05-17T03:55:13.351Z,98.42
2019-05-17T03:57:43.988Z,98.01
2019-05-17T04:00:13.561Z,98.06
2019-05-17T04:02:44.458Z,98.26
2019-05-17T04:05:13.008Z,98.48
2019-05-17T04:07:43.511Z,98.47
2019-05-17T04:10:15.212Z,98.51
2019-05-17T04:12:44.076Z,98.59
2019-05-17T04:15:14.576Z,98.61
2019-05-17T04:17:44.095Z,98.84
2019-05-17T04:20:13.930Z,98.90
2019-05-17T04:22:44.159Z,98.85
2019-05-17T04:25:13.811Z,98.96
2019-05-17T04:27:43.573Z,98.92
2019-05-17T04:30:12.953Z,99.47
2019-05-17T04:32:44.233Z,99.40
2019-05-17T04:35:13.095Z,99.45
2019-05-17T04:37:44.764Z,99.52
2019-05-17T04:40:14.119Z,99.83
2019-05-17T04:42:43.838Z,99.84
2019-05-17T04:45:13.296Z,99.86
2019-05-17T04:47:44.136Z,99.50
2019-05-17T04:50:13.610Z,99.20
2019-05-17T04:52:43.120Z,99.33
2019-05-17T04:55:13.259Z,99.39
2019-05-17T04:57:43.766Z,99.46
2019-05-17T05:00:13.639Z,99.81
2019-05-17T05:02:43.884Z,99.36
2019-05-17T05:05:13.601Z,99.30
2019-05-17T05:07:43.352Z,99.70
2019-05-17T05:10:13.702Z,99.64
2019-05-17T05:12:43.903Z,99.62
2019-05-17T05:15:13.266Z,99.50
2019-05-17T05:17:42.649Z,99.48
2019-05-17T05:20:13.229Z,99.79
2019-05-17T05:22:42.839Z,99.88
2019-05-17T05:25:12.416Z,99.78
2019-05-17T05:27:42.617Z,99.46
2019-05-17T05:30:12.085Z,99.82
2019-05-17T05:32:42.728Z,99.73
2019-05-17T05:35:12.440Z,99.87
2019-05-17T05:37:42.508Z,99.73
2019-05-17T05:40:12.582Z,99.52
2019-05-17T05:42:42.501Z,99.78
2019-05-17T05:45:12.313Z,99.64
2019-05-17T05:47:42.295Z,99.67
2019-05-17T05:50:12.821Z,99.27
2019-05-17T05:52:42.176Z,99.14
2019-05-17T05:55:12.408Z,99.45
2019-05-17T05:57:41.999Z,99.16
2019-05-17T06:00:13.440Z,99.39
2019-05-17T06:02:42.186Z,99.18
2019-05-17T06:05:14.910Z,99.06
2019-05-17T06:07:42.045Z,99.16
2019-05-17T06:10:13.119Z,99.15
2019-05-17T06:12:43.320Z,98.30
2019-05-17T06:15:12.681Z,98.34
2019-05-17T06:17:42.903Z,98.16
2019-05-17T06:20:12.086Z,98.47
2019-05-17T06:22:42.695Z,98.12
2019-05-17T06:25:14.796Z,98.11
2019-05-17T06:27:41.602Z,98.94
2019-05-17T06:30:12.519Z,98.84
2019-05-17T06:32:43.343Z,98.50
2019-05-17T06:35:12.777Z,97.98
2019-05-17T06:37:42.299Z,97.95
2019-05-17T06:40:13.109Z,97.75
2019-05-17T06:42:45.303Z,97.76
2019-05-17T06:45:12.648Z,96.76
2019-05-17T06:47:42.615Z,97.54
2019-05-17T06:50:14.453Z,98.01
2019-05-17T06:52:43.506Z,96.01
2019-05-17T06:55:12.950Z,95.74
2019-05-17T06:57:43.229Z,96.29
2019-05-17T07:00:19.744Z,94.67
2019-05-17T07:02:43.806Z,95.39
2019-05-17T07:05:14.322Z,94.01
2019-05-17T07:07:42.749Z,93.82
2019-05-17T07:10:11.532Z,94.85
2019-05-17T07:12:54.426Z,93.81
2019-05-17T07:15:10.858Z,94.01
2019-05-17T07:17:40.130Z,94.50
2019-05-17T07:20:10.275Z,93.47
2019-05-17T07:22:40.817Z,92.51
2019-05-17T07:25:10.930Z,91.12
2019-05-17T07:27:45.305Z,89.84
2019-05-17T07:30:10.767Z,88.93
2019-05-17T07:32:40.529Z,85.77
2019-05-17T07:35:10.975Z,83.45
2019-05-17T07:37:39.866Z,81.80
2019-05-17T07:40:10.966Z,81.90
2019-05-17T07:42:39.702Z,81.37
2019-05-17T07:45:10.109Z,79.79
2019-05-17T07:47:40.575Z,78.62
2019-05-17T07:50:11.210Z,79.30
2019-05-17T07:52:40.117Z,79.05
2019-05-17T07:55:10.952Z,78.55
2019-05-17T07:57:40.968Z,79.14
2019-05-17T08:00:10.846Z,79.97
2019-05-17T08:02:40.076Z,80.42
2019-05-17T08:05:10.805Z,85.71
2019-05-17T08:07:40.479Z,87.34
2019-05-17T08:10:11.016Z,87.28
2019-05-17T08:12:40.754Z,87.36
2019-05-17T08:15:10.783Z,86.67
2019-05-17T08:17:40.022Z,86.84
2019-05-17T08:20:10.495Z,87.72
2019-05-17T08:22:39.804Z,87.46
2019-05-17T08:25:10.352Z,88.17
2019-05-17T08:27:40.456Z,89.76
2019-05-17T08:30:10.588Z,90.54
2019-05-17T08:32:40.238Z,90.04
2019-05-17T08:35:11.342Z,92.10
2019-05-17T08:37:42.296Z,91.10
2019-05-17T08:40:10.973Z,92.92
2019-05-17T08:42:40.755Z,91.86
2019-05-17T08:45:10.025Z,91.26
2019-05-17T08:47:39.735Z,91.15
2019-05-17T08:50:11.398Z,91.32
2019-05-17T08:52:40.453Z,91.16
2019-05-17T08:55:10.024Z,90.10
2019-05-17T08:57:40.154Z,89.18
2019-05-17T09:00:10.855Z,89.97
2019-05-17T09:02:40.968Z,90.88
2019-05-17T09:05:10.060Z,89.46
2019-05-17T09:07:40.097Z,90.37
2019-05-17T09:10:10.219Z,91.42
2019-05-17T09:12:40.973Z,89.83
2019-05-17T09:15:10.094Z,89.93
2019-05-17T09:17:39.639Z,90.02
2019-05-17T09:20:10.756Z,89.33
2019-05-17T09:22:39.933Z,89.39
2019-05-17T09:25:12.427Z,86.59
2019-05-17T09:27:39.998Z,86.45
2019-05-17T09:30:10.556Z,87.13
2019-05-17T09:32:40.375Z,87.61
2019-05-17T09:35:09.974Z,88.95
2019-05-17T09:37:41.449Z,89.98
2019-05-17T09:40:09.895Z,88.84
2019-05-17T09:42:41.013Z,89.46
2019-05-17T09:45:09.934Z,87.75
2019-05-17T09:47:39.694Z,87.13
2019-05-17T09:50:10.281Z,87.02
2019-05-17T09:52:40.498Z,88.64
2019-05-17T09:55:09.847Z,87.35
2019-05-17T09:57:40.875Z,87.97
2019-05-17T10:00:10.298Z,86.26
2019-05-17T10:02:40.165Z,86.21
2019-05-17T10:05:10.642Z,84.04
2019-05-17T10:07:40.238Z,85.15
2019-05-17T10:10:10.433Z,84.66
2019-05-17T10:12:40.348Z,84.74
2019-05-17T10:15:10.081Z,83.14
2019-05-17T10:17:38.778Z,82.99
2019-05-17T10:20:07.616Z,84.10
2019-05-17T10:22:36.110Z,83.34
2019-05-17T10:25:09.442Z,83.50
2019-05-17T10:27:37.020Z,84.51
2019-05-17T10:30:11.499Z,83.26
2019-05-17T10:32:40.928Z,83.83
2019-05-17T10:35:10.129Z,82.62
2019-05-17T10:37:40.639Z,82.07
2019-05-17T10:40:10.967Z,82.28
2019-05-17T10:42:40.011Z,84.69
2019-05-17T10:45:10.923Z,83.69
2019-05-17T10:47:39.829Z,83.72
2019-05-17T10:50:10.785Z,83.30
2019-05-17T10:52:40.836Z,81.57
2019-05-17T10:55:10.518Z,80.60
2019-05-17T10:57:39.261Z,78.45
2019-05-17T11:03:31.431Z,77.42
2019-05-17T11:06:00.014Z,76.58
2019-05-17T11:08:28.463Z,76.53
2019-05-17T11:10:56.875Z,74.97
2019-05-17T11:13:25.377Z,74.61
2019-05-17T11:15:53.811Z,74.87
2019-05-17T11:18:22.244Z,75.28
2019-05-17T11:20:50.667Z,73.36
2019-05-17T11:23:19.109Z,75.87
2019-05-17T11:25:47.534Z,75.64
2019-05-17T11:28:15.965Z,75.42
2019-05-17T11:30:44.814Z,76.71
2019-05-17T11:33:13.282Z,75.82
2019-05-17T11:35:41.713Z,76.56
2019-05-17T11:38:10.147Z,77.24
2019-05-17T11:40:38.586Z,77.00
2019-05-17T11:43:07.017Z,76.06
2019-05-17T11:45:35.521Z,74.29
2019-05-17T11:48:03.958Z,75.92
2019-05-17T11:50:32.385Z,75.48
2019-05-17T11:53:00.805Z,73.99
2019-05-17T11:55:29.251Z,73.09
2019-05-17T11:57:57.674Z,71.32
2019-05-17T12:00:26.942Z,71.97
2019-05-17T12:02:55.354Z,73.08
2019-05-17T12:05:23.901Z,72.13
2019-05-17T12:07:52.328Z,73.21
2019-05-17T12:10:20.879Z,74.18
2019-05-17T12:12:49.314Z,73.34
2019-05-17T12:15:17.763Z,74.51
2019-05-17T12:17:46.241Z,73.19
2019-05-17T12:20:15.204Z,72.11
2019-05-17T12:22:43.673Z,72.63
2019-05-17T12:25:12.351Z,72.94
2019-05-17T12:27:40.767Z,73.82
2019-05-17T12:30:09.876Z,74.24
2019-05-17T12:32:38.589Z,73.43
2019-05-17T12:35:07.481Z,72.57
2019-05-17T12:37:35.907Z,71.60
2019-05-17T12:40:05.788Z,73.37
2019-05-17T12:42:34.207Z,73.43
2019-05-17T12:45:02.935Z,74.56
2019-05-17T12:47:31.358Z,72.67
2019-05-17T12:49:59.791Z,72.97
2019-05-17T12:52:28.210Z,72.69
2019-05-17T12:54:56.673Z,73.37
2019-05-17T12:57:25.101Z,73.29
2019-05-17T12:59:53.536Z,72.84
2019-05-17T13:02:22.010Z,74.58
2019-05-17T13:04:50.395Z,73.85
2019-05-17T13:07:18.818Z,75.21
2019-05-17T13:09:47.244Z,74.85
2019-05-17T13:12:15.669Z,74.45
2019-05-17T13:14:44.104Z,73.47
2019-05-17T13:17:12.526Z,74.07
2019-05-17T13:19:40.958Z,74.04
2019-05-17T13:22:09.383Z,72.55
2019-05-17T13:24:37.819Z,73.27
2019-05-17T13:27:06.245Z,72.82
2019-05-17T13:29:34.688Z,70.95
2019-05-17T13:32:03.121Z,70.74
2019-05-17T13:34:31.532Z,72.66
2019-05-17T13:36:59.966Z,72.43
2019-05-17T13:39:28.387Z,72.15
2019-05-17T13:41:56.814Z,71.98
2019-05-17T13:44:25.226Z,71.17
2019-05-17T13:46:53.653Z,71.36
2019-05-17T13:49:22.072Z,70.70
2019-05-17T13:51:50.517Z,71.44
2019-05-17T13:54:18.934Z,70.67
2019-05-17T13:56:47.377Z,72.77
2019-05-17T13:59:15.801Z,69.45
2019-05-17T14:01:44.235Z,70.01
2019-05-17T14:04:12.648Z,69.26
2019-05-17T14:06:41.126Z,66.21
2019-05-17T14:09:10.366Z,66.16
2019-05-17T14:11:38.807Z,67.24
2019-05-17T14:14:07.233Z,65.16
2019-05-17T14:16:35.646Z,67.65
2019-05-17T14:19:04.056Z,65.06
2019-05-17T14:21:32.483Z,68.64
2019-05-17T14:24:00.914Z,67.49
2019-05-17T14:26:29.336Z,66.08
2019-05-17T14:28:57.862Z,66.23
2019-05-17T14:31:26.265Z,68.40
2019-05-17T14:33:54.686Z,67.62
2019-05-17T14:36:23.122Z,66.02
2019-05-17T14:38:51.556Z,66.97
2019-05-17T14:41:20.047Z,66.31
2019-05-17T14:43:48.471Z,66.30
2019-05-17T14:46:16.902Z,66.81
2019-05-17T14:48:45.316Z,67.84
2019-05-17T14:51:13.755Z,67.59
2019-05-17T14:53:42.337Z,66.30
2019-05-17T14:56:10.863Z,66.36
2019-05-17T14:58:39.277Z,66.79
2019-05-17T15:01:07.704Z,65.34
2019-05-17T15:03:36.110Z,64.36
2019-05-17T15:06:04.608Z,62.84
2019-05-17T15:08:33.018Z,64.10
2019-05-17T15:11:01.463Z,64.92
2019-05-17T15:13:29.878Z,65.36
2019-05-17T15:15:58.298Z,65.21
2019-05-17T15:18:26.712Z,64.65
2019-05-17T15:20:55.125Z,65.11
2019-05-17T15:23:23.562Z,64.32
2019-05-17T15:25:51.971Z,65.27
2019-05-17T15:28:20.392Z,65.27
2019-05-17T15:30:48.789Z,65.01
2019-05-17T15:33:17.228Z,64.54
2019-05-17T15:35:45.651Z,64.37
2019-05-17T15:38:14.081Z,64.17
2019-05-17T15:40:42.491Z,61.81
2019-05-17T15:43:10.963Z,61.92
2019-05-17T15:45:39.375Z,64.54
2019-05-17T15:48:07.837Z,63.43
2019-05-17T15:50:36.243Z,62.78
2019-05-17T15:53:04.649Z,62.95
2019-05-17T15:55:33.060Z,62.00
2019-05-17T15:58:01.513Z,62.51
2019-05-17T16:00:29.916Z,62.44
2019-05-17T16:02:58.334Z,62.04
2019-05-17T16:05:26.818Z,64.02
2019-05-17T16:07:55.246Z,63.45
2019-05-17T16:10:23.727Z,63.38
2019-05-17T16:13:02.344Z,65.16
2019-05-17T16:15:23.023Z,64.53
2019-05-17T16:17:51.554Z,64.53
2019-05-17T16:20:20.023Z,64.21
2019-05-17T16:22:48.470Z,65.45
2019-05-17T16:25:16.966Z,65.26
2019-05-17T16:27:45.390Z,65.73
2019-05-17T16:30:14.039Z,67.19
2019-05-17T16:32:45.131Z,67.09
2019-05-17T16:35:13.565Z,66.92
2019-05-17T16:37:41.991Z,67.25
2019-05-17T16:40:11.143Z,67.56
2019-05-17T16:42:39.669Z,66.28
2019-05-17T16:45:09.081Z,68.76
2019-05-17T16:47:37.535Z,69.02
2019-05-17T16:50:09.081Z,69.37
2019-05-17T16:52:37.530Z,69.28
2019-05-17T16:55:06.798Z,70.88
2019-05-17T16:57:35.221Z,69.38
2019-05-17T17:00:06.334Z,68.89
2019-05-17T17:02:34.747Z,69.17
2019-05-17T17:05:03.746Z,69.09
2019-05-17T17:07:32.172Z,67.88
2019-05-17T17:10:00.604Z,67.43
2019-05-17T17:12:29.027Z,67.58
2019-05-17T17:14:57.456Z,65.42
2019-05-17T17:17:26.427Z,65.87
2019-05-17T17:19:54.864Z,63.49
2019-05-17T17:22:23.283Z,66.36
2019-05-17T17:24:51.720Z,67.13
2019-05-17T17:27:20.140Z,66.60
2019-05-17T17:29:48.577Z,65.51
2019-05-17T17:32:21.451Z,65.31
2019-05-17T17:34:47.166Z,62.89
2019-05-17T17:37:15.583Z,62.75
2019-05-17T17:39:44.030Z,60.52
2019-05-17T17:42:12.457Z,60.80
2019-05-17T17:44:40.894Z,59.24
2019-05-17T17:47:09.317Z,59.18
2019-05-17T17:49:37.746Z,59.93
2019-05-17T17:54:41.846Z,62.47
2019-05-17T17:57:10.265Z,62.44
2019-05-17T17:59:38.706Z,63.94
2019-05-17T18:02:07.119Z,65.29
2019-05-17T18:04:35.576Z,67.48
2019-05-17T18:07:04.374Z,67.26
2019-05-17T18:09:32.802Z,68.35
2019-05-17T18:12:01.244Z,68.61
2019-05-17T18:14:29.708Z,69.53
2019-05-17T18:16:58.144Z,69.59
2019-05-17T18:19:26.619Z,70.93
2019-05-17T18:21:55.084Z,70.77
2019-05-17T18:24:23.506Z,70.57
2019-05-17T18:26:51.956Z,70.62
2019-05-17T18:29:20.398Z,69.90
2019-05-17T18:31:48.824Z,70.33
2019-05-17T18:34:17.298Z,70.56
2019-05-17T18:36:45.719Z,71.19
2019-05-17T18:39:14.137Z,71.99
2019-05-17T18:41:42.583Z,73.39
2019-05-17T18:44:10.996Z,74.18
2019-05-17T18:46:39.435Z,75.01
2019-05-17T18:49:07.848Z,76.53
2019-05-17T18:51:36.287Z,78.44
2019-05-17T18:54:05.814Z,80.42
2019-05-17T18:56:34.262Z,82.10
2019-05-17T18:59:02.679Z,82.50
2019-05-17T19:01:31.120Z,83.15
2019-05-17T19:03:59.545Z,83.66
2019-05-17T19:06:27.982Z,84.55
2019-05-17T19:08:56.418Z,85.50
2019-05-17T19:11:24.900Z,86.29
2019-05-17T19:13:53.294Z,86.43
2019-05-17T19:16:21.728Z,86.76
2019-05-17T19:18:50.150Z,87.04
2019-05-17T19:21:18.582Z,87.60
2019-05-17T19:23:47.006Z,89.37
2019-05-17T19:26:15.439Z,89.24
2019-05-17T19:28:43.855Z,89.42
2019-05-17T19:31:13.825Z,89.82
2019-05-17T19:33:42.265Z,89.83
2019-05-17T19:36:10.707Z,90.40
2019-05-17T19:38:39.121Z,90.42
2019-05-17T19:41:07.577Z,91.35
2019-05-17T19:43:36.001Z,91.61
2019-05-17T19:46:04.422Z,92.14
2019-05-17T19:48:32.865Z,92.64
2019-05-17T19:51:01.351Z,93.46
2019-05-17T19:53:29.818Z,93.31
2019-05-17T19:55:58.251Z,93.98
2019-05-17T19:58:26.669Z,93.99
2019-05-17T20:00:55.157Z,94.39
2019-05-17T20:03:23.602Z,94.35
2019-05-17T20:05:52.072Z,94.65
2019-05-17T20:08:20.522Z,94.68
2019-05-17T20:10:51.780Z,94.94
2019-05-17T20:13:19.102Z,94.76
2019-05-17T20:15:47.520Z,95.21
2019-05-17T20:18:15.972Z,95.53
2019-05-17T20:20:44.411Z,95.48
2019-05-17T20:23:12.924Z,95.65
2019-05-17T20:25:41.413Z,95.65
2019-05-17T20:28:09.859Z,96.10
2019-05-17T20:30:38.298Z,95.48
2019-05-17T20:33:06.751Z,95.57
2019-05-17T20:35:35.201Z,96.06
2019-05-17T20:38:03.657Z,96.19
2019-05-17T20:40:32.076Z,96.21
2019-05-17T20:43:00.523Z,96.06
2019-05-17T20:45:33.328Z,96.26
2019-05-17T20:47:59.102Z,96.24
2019-05-17T20:50:27.518Z,96.30
2019-05-17T20:52:55.957Z,96.60
2019-05-17T20:55:27.211Z,96.61
2019-05-17T20:57:54.568Z,96.62
2019-05-17T21:00:22.988Z,96.68
2019-05-17T21:02:51.438Z,97.39
2019-05-17T21:05:19.895Z,97.33
2019-05-17T21:07:48.407Z,97.10
2019-05-17T21:10:16.961Z,97.20
2019-05-17T21:12:45.391Z,97.37
2019-05-17T21:15:14.004Z,97.56
2019-05-17T21:17:42.410Z,97.70
2019-05-17T21:20:11.461Z,97.72
2019-05-17T21:22:39.897Z,97.84
2019-05-17T21:25:08.858Z,97.77
2019-05-17T21:27:37.291Z,97.89
2019-05-17T21:30:06.748Z,97.78
2019-05-17T21:32:35.188Z,97.82
2019-05-17T21:35:05.043Z,97.90
2019-05-17T21:37:34.505Z,97.95
2019-05-17T21:40:04.219Z,97.89
2019-05-17T21:42:32.651Z,97.96
2019-05-17T21:45:01.147Z,98.01
2019-05-17T21:47:29.609Z,98.02
2019-05-17T21:49:58.030Z,98.19
2019-05-17T21:52:26.480Z,98.00
2019-05-17T21:54:54.926Z,98.02
2019-05-17T21:57:23.394Z,98.20
2019-05-17T21:59:51.873Z,98.02
2019-05-17T22:02:20.330Z,98.19
2019-05-17T22:04:48.756Z,98.22
2019-05-17T22:07:17.196Z,98.02
2019-05-17T22:09:45.645Z,98.11
2019-05-17T22:12:14.840Z,98.17
2019-05-17T22:14:43.278Z,98.10
2019-05-17T22:17:11.856Z,98.27
2019-05-17T22:19:40.281Z,98.40
2019-05-17T22:22:08.691Z,98.52
2019-05-17T22:24:37.126Z,98.40
2019-05-17T22:27:05.530Z,98.31
2019-05-17T22:29:33.965Z,98.28
2019-05-17T22:32:02.545Z,98.20
2019-05-17T22:34:31.007Z,98.40
2019-05-17T22:36:59.431Z,98.26
2019-05-17T22:39:27.858Z,98.34
2019-05-17T22:41:57.044Z,98.22
2019-05-17T22:44:25.496Z,98.21
2019-05-17T22:46:53.890Z,98.29
2019-05-17T22:49:22.332Z,98.22
2019-05-17T22:51:50.752Z,98.21
2019-05-17T22:54:19.207Z,98.08
2019-05-17T22:56:47.624Z,98.08
2019-05-17T22:59:16.058Z,98.24
2019-05-17T23:01:44.508Z,98.07
2019-05-17T23:04:12.969Z,98.05
2019-05-17T23:06:42.075Z,98.14
2019-05-17T23:09:10.563Z,98.05
2019-05-17T23:11:39.014Z,98.26
2019-05-17T23:14:07.450Z,98.23
2019-05-17T23:16:50.244Z,98.41
2019-05-17T23:19:09.293Z,98.47
2019-05-17T23:21:38.060Z,98.33
2019-05-17T23:24:06.723Z,98.13
2019-05-17T23:26:35.208Z,98.18
2019-05-17T23:29:03.689Z,98.19
2019-05-17T23:31:32.114Z,98.48
2019-05-17T23:34:00.573Z,98.39
2019-05-17T23:36:29.034Z,98.49
2019-05-17T23:38:57.471Z,98.41
2019-05-17T23:41:25.877Z,98.64
2019-05-17T23:43:54.307Z,98.54
2019-05-17T23:46:22.729Z,98.48
2019-05-17T23:48:51.201Z,98.46
2019-05-17T23:51:19.610Z,98.49
2019-05-17T23:53:48.075Z,98.38
2019-05-17T23:56:16.455Z,98.60
2019-05-17T23:58:44.882Z,98.58
